ハバロフスク の空港の天気 - METARとTAF

ハバロフスク空港 ( UHHH / KHV ) - ロシア ハバロフスク
飛行場実況気象(Metar)
観測時間07/22 10:00 VLAT (07/22 00:00 UTC)
風向・風速南東 2m/s
視程10km以上
天気現象
なし
気温21℃
湿度69%
気圧1012hPa
METARUHHH 220000Z 14002MPS 100V180 CAVOK 21/15 Q1012 R23L/090060 NOSIG RMK QFE752/1003
過去の天気等 Google飛行場航空写真 Wunderground天気予報

過去48時間のMETAR

飛行場予報(TAF)
発表時間: 7/22 08:47 VLAT (7/21 22:47 UTC)
予報対象時間: 22日10時 VLAT ~ 23日16時 VLAT
風向・風速南東 3m/s
視程10km以上
なし
22日13時 VLAT から
風向・風速西南西 3m/s
視程10km以上
全天の4割程度の積乱雲 雲底高度 760m
TAF UHHH 212247Z 2200/2306 14003MPS CAVOK
FM220300 25003MPS 9999 SCT025CB